Weather observations for the past three days for
Douglas, Converse County Airport
Metric (Imperial)
Date Time (mdt) Wind (kph) Vis. (km) Weather Sky Cond. Temperature (ºC) Relative Humidity Wind Chill (°C) Heat Index (°C) Pressure Precipitation (cm)
Air Dwpt 6 hour altimeter (cm) sea level (mb) 1 hr 3 hr 6 hr
Max. Min.
02 16:53 W 33 G 46 16.09 Fair and Breezy CLR 22.8 -12.2 9% 76.15 1012.7
02 15:53 NW 33 G 50 16.09 Fair and Breezy CLR 22.8 -12.2 9% 76.2 1013.2
02 14:53 W 26 G 43 16.09 Fair CLR 22.8 -8.9 11% 76.28 1014.0
02 13:53 NW 24 G 33 16.09 Fair CLR 21.7 -8.3 13% 76.33 1014.8
02 12:53 NW 26 G 41 16.09 Fair CLR 20.6 -8.9 13% 76.38 1015.6
02 11:53 NW 28 G 46 16.09 Fair CLR 20 -7.8 20 -2.8 15% 76.43 1016.4
02 10:53 W 33 G 43 16.09 Fair and Breezy CLR 18.9 -7.2 16% 76.45 1016.6
02 09:53 W 17 G 28 16.09 Fair CLR 13.9 -0.6 37% 76.5 1017.3
02 08:53 NW 9 16.09 Fair CLR 8.3 -2.2 48% 7 76.53 1018.4
02 07:53 Calm 16.09 Fair CLR 3.3 -2.2 68% 76.53 1018.9
02 06:53 Calm 16.09 Fair CLR -0.6 -2.8 85% 76.56 1019.7
02 05:53 Calm 16.09 Fair CLR -2.8 -4.4 3.3 -2.8 89% 76.53 1019.8
02 04:53 Calm 16.09 Fair CLR -2.2 -3.3 92% 76.56 1020.1
02 03:53 W 6 16.09 Fair CLR -0.6 -3.3 82% 76.56 1019.7
02 02:53 SE 7 16.09 Fair CLR 0 -3.9 75% -2 76.56 1019.4
02 01:53 Calm 16.09 Fair CLR 1.7 -2.8 72% 76.58 1019.4
02 00:53 SE 9 16.09 Fair CLR 2.2 -2.8 70% -0 76.61 1019.8
01 23:53 E 9 16.09 Fair CLR 2.2 -2.8 16.1 2.2 70% -0 76.61 1020.2
01 22:53 E 7 16.09 Fair CLR 4.4 -2.8 60% 3 76.61 1019.8
01 21:53 NE 11 16.09 Fair CLR 8.9 -5 37% 7 76.56 1018.7
01 20:53 NE 17 16.09 Fair CLR 10 -4.4 36% 8 76.5 1018.2
01 19:53 N 15 16.09 A Few Clouds FEW100 12.8 -5.6 28% 76.43 1017.6
01 17:53 N 26 G 37 16.09 Overcast OVC110 15.6 -6.7 17.2 14.4 21% 76.38 1017.7
01 16:53 N 19 16.09 Overcast OVC110 15.6 -6.1 22% 76.38 1017.4
01 15:53 N 28 G 39 16.09 Overcast OVC100 16.1 -6.1 21% 76.4 1017.9
01 14:53 NW 26 G 43 16.09 Mostly Cloudy BKN095 16.1 -7.2 20% 76.45 1017.9
01 13:53 N 19 G 41 16.09 A Few Clouds FEW090 16.1 -7.2 20% 76.45 1018.0
01 12:53 NW 22 G 33 16.09 A Few Clouds FEW085 15 -7.2 21% 76.48 1018.3
01 11:53 N 19 16.09 Fair CLR 14.4 -6.7 15 -2.2 23% 76.5 1018.7
01 10:53 NW 24 G 41 16.09 A Few Clouds FEW070 13.3 -5.6 27% 76.53 1018.9
01 09:53 W 31 16.09 Fair CLR 11.1 -5 32% 76.53 1019.1
01 08:53 NW 20 16.09 Fair CLR 8.3 -2.8 46% 5 76.56 1019.7
01 07:53 NW 20 16.09 Fair CLR 3.9 -2.2 65% 0 76.56 1020.0
01 06:53 NW 15 16.09 Fair CLR 0 -3.3 79% -4 76.53 1020.6
01 05:53 N 15 16.09 Fair CLR -2.2 -4.4 1.7 -2.2 85% -7 76.53 1020.3
01 04:53 N 13 16.09 Fair CLR -1.1 -3.9 82% -5 76.53 1019.9
01 03:53 N 11 16.09 Fair CLR -1.7 -4.4 82% -5 76.53 1020.3
01 02:53 N 11 16.09 Fair CLR 0 -3.9 75% -3 76.56 1020.2
01 01:53 N 9 16.09 Fair CLR 0 -3.3 79% -3 76.58 1020.5
01 00:53 NW 7 16.09 Fair CLR 1.1 -3.9 70% -1 76.58 1020.8
30 23:53 NW 7 16.09 Fair CLR 1.7 -3.9 12.2 1.1 67% -0 76.56 1020.3
30 22:53 W 6 16.09 Fair CLR 2.8 -3.9 62% 76.56 1020.3
30 21:53 NW 6 16.09 A Few Clouds FEW080 3.9 -4.4 55% 76.56 1020.2
30 20:53 NE 11 16.09 Mostly Cloudy BKN080 6.1 -5 45% 4 76.5 1019.7
30 19:53 N 15 16.09 Fair CLR 8.9 -7.2 32% 7 76.45 1018.9
30 18:53 N 17 16.09 A Few Clouds FEW085 10 -7.8 28% 8 76.43 1018.8
30 17:53 N 24 16.09 Partly Cloudy SCT085 11.7 -7.8 13.9 9.4 25% 76.43 1018.6
30 16:53 N 24 G 35 16.09 Mostly Cloudy BKN085 13.3 -8.3 22% 76.43 1017.8
30 15:53 N 24 G 52 16.09 Overcast OVC085 12.2 -8.3 23% 76.45 1018.2
30 14:53 NW 19 G 35 16.09 Overcast OVC085 12.2 -7.8 24% 76.48 1018.6
30 13:53 NW 13 16.09 Overcast OVC080 11.7 -7.8 25% 76.5 1019.3
30 12:53 Calm 16.09 Overcast OVC075 10 -7.2 29% 76.56 1019.8
30 11:53 Calm 16.09 Overcast OVC070 10 -7.8 11.1 -1.1 28% 76.61 1020.4
30 10:53 NE 13 G 28 16.09 A Few Clouds FEW065 9.4 -7.8 29% 8 76.63 1021.0
30 09:53 N 13 G 26 16.09 Fair CLR 8.3 -6.1 36% 6 76.63 1021.2
30 08:53 NW 7 16.09 Fair CLR 6.1 -2.2 56% 5 76.66 1021.8
30 07:53 NW 7 16.09 Partly Cloudy SCT075 2.8 -1.7 73% 1 76.68 1022.6
30 06:53 Calm 16.09 Mostly Cloudy BKN070 0.6 -2.8 78% 76.66 1022.0
30 05:53 Calm 16.09 Fair CLR 0.6 -2.8 4.4 0 78% 76.63 1021.5
30 04:53 NW 7 16.09 Overcast OVC080 1.7 -1.7 78% -0 76.66 1021.2
30 03:53 NW 6 16.09 Overcast OVC060 2.8 -1.7 73% 76.66 1021.1
30 02:53 W 7 16.09 Overcast OVC060 3.3 -2.8 65% 2 76.68 1021.2
30 01:53 N 7 16.09 Overcast BKN070 OVC085 2.8 -2.2 70% 1 76.68 1021.3
30 00:53 N 11 16.09 Mostly Cloudy FEW070 FEW090 BKN110 3.9 -0.6 73% 1 76.68 1021.1
29 23:53 N 9 16.09 Overcast OVC065 3.9 0.6 11.1 3.3 79% 2 76.68 1021.2
29 22:53 NW 6 16.09 A Few Clouds FEW060 3.3 0 79% 76.66 1021.2
29 21:53 W 6 16.09 Mostly Cloudy BKN060 4.4 -0.6 70% 76.66 1021.1
29 20:53 NE 19 16.09 A Few Clouds FEW090 5.6 -0.6 65% 2 76.58 1021.0
29 19:53 NE 22 16.09 Fair CLR 7.2 -0.6 58% 4 76.53 1020.7
29 18:53 N 22 G 30 16.09 Mostly Cloudy BKN070 BKN085 10 -3.9 38% 7 76.45 1020.0
29 17:53 N 22 G 35 16.09 Overcast BKN080 OVC090 11.1 -6.1 13.9 10.6 30% 76.43 1019.4
Date Time (mdt) Wind (kph) Vis. (km) Weather Sky Cond. Air Dwpt Max. Min. Relative Humidity Wind Chill (°C) Heat Index (°C) altimeter (cm) sea level (mb) 1 hr 3 hr 6 hr
6 hour
Temperature (ºC) Pressure Precipitation (cm)